createdAt,value
2023-02-13T00:02:26.658Z,14.47
2023-02-13T00:04:56.755Z,14.17
2023-02-13T00:07:29.444Z,14.70
2023-02-13T00:09:59.500Z,13.10
2023-02-13T00:12:29.617Z,14.13
2023-02-13T00:15:00.347Z,13.00
2023-02-13T00:17:30.936Z,14.07
2023-02-13T00:20:01.185Z,13.10
2023-02-13T00:22:39.585Z,13.07
2023-02-13T00:25:15.968Z,14.03
2023-02-13T00:27:46.505Z,13.40
2023-02-13T00:30:18.622Z,13.67
2023-02-13T00:32:48.682Z,13.43
2023-02-13T00:35:18.858Z,13.07
2023-02-13T00:37:51.481Z,13.70
2023-02-13T00:40:22.889Z,12.37
2023-02-13T00:42:52.952Z,12.50
2023-02-13T00:48:07.646Z,12.40
2023-02-13T00:50:37.693Z,12.40
2023-02-13T00:53:11.703Z,11.57
2023-02-13T00:55:45.973Z,12.47
2023-02-13T00:58:16.144Z,12.67
2023-02-13T01:00:47.368Z,11.80
2023-02-13T01:03:18.617Z,12.37
2023-02-13T01:05:49.817Z,12.53
2023-02-13T01:08:23.847Z,11.60
2023-02-13T01:10:53.886Z,12.20
2023-02-13T01:13:24.065Z,12.27
2023-02-13T01:15:54.851Z,12.23
2023-02-13T01:18:26.365Z,11.20
2023-02-13T01:21:04.858Z,12.27
2023-02-13T01:23:40.983Z,11.53
2023-02-13T01:26:16.382Z,11.93
2023-02-13T01:28:46.446Z,12.53
2023-02-13T01:31:16.851Z,10.77
2023-02-13T01:33:47.003Z,10.80
2023-02-13T01:36:18.406Z,12.20
2023-02-13T01:38:51.207Z,12.10
2023-02-13T01:41:21.322Z,12.40
2023-02-13T01:43:55.785Z,10.77
2023-02-13T01:46:33.357Z,11.20
2023-02-13T01:49:13.365Z,11.20
2023-02-13T01:51:46.183Z,10.97
2023-02-13T01:54:30.976Z,11.33
2023-02-13T01:57:07.293Z,11.20
2023-02-13T01:59:50.903Z,11.90
2023-02-13T02:02:23.739Z,11.33
2023-02-13T02:04:56.662Z,11.63
2023-02-13T02:07:33.056Z,11.60
2023-02-13T02:10:12.431Z,11.77
2023-02-13T02:12:50.672Z,11.63
2023-02-13T02:15:21.408Z,11.40
2023-02-13T02:17:51.446Z,11.10
2023-02-13T02:20:54.639Z,11.73
2023-02-13T02:24:07.154Z,12.20
2023-02-13T02:27:17.193Z,10.87
2023-02-13T02:30:36.568Z,11.50
2023-02-13T02:33:31.930Z,10.70
2023-02-13T02:36:22.621Z,10.97
2023-02-13T02:39:09.131Z,11.47
2023-02-13T02:41:58.291Z,11.07
2023-02-13T02:44:45.700Z,10.90
2023-02-13T02:47:40.781Z,11.20
2023-02-13T02:50:34.424Z,11.10
2023-02-13T02:53:42.751Z,11.20
2023-02-13T02:56:21.358Z,12.77
2023-02-13T02:59:11.295Z,11.90
2023-02-13T03:01:56.009Z,11.77
2023-02-13T03:04:46.247Z,11.43
2023-02-13T03:07:22.752Z,11.70
2023-02-13T03:10:12.591Z,11.13
2023-02-13T03:13:03.406Z,11.10
2023-02-13T03:15:35.705Z,12.00
2023-02-13T03:18:18.563Z,11.53
2023-02-13T03:21:09.413Z,10.77
2023-02-13T03:23:59.712Z,11.50
2023-02-13T03:27:00.649Z,11.70
2023-02-13T03:29:59.744Z,11.73
2023-02-13T03:32:39.509Z,11.47
2023-02-13T03:35:52.973Z,11.73
2023-02-13T03:38:32.530Z,11.77
2023-02-13T03:41:23.543Z,11.67
2023-02-13T03:44:11.665Z,11.90
2023-02-13T03:46:47.024Z,11.30
2023-02-13T03:49:38.840Z,11.77
2023-02-13T03:52:18.935Z,11.13
2023-02-13T03:55:08.071Z,11.00
2023-02-13T03:57:56.848Z,12.83
2023-02-13T04:00:33.783Z,11.90
2023-02-13T04:03:19.338Z,12.17
2023-02-13T04:05:56.766Z,12.33
2023-02-13T04:08:26.991Z,10.87
2023-02-13T04:11:10.284Z,12.93
2023-02-13T04:13:49.944Z,12.27
2023-02-13T04:16:30.666Z,13.40
2023-02-13T04:19:03.712Z,13.40
2023-02-13T04:21:37.157Z,12.93
2023-02-13T04:24:10.516Z,13.20
2023-02-13T04:26:44.375Z,12.60
2023-02-13T04:29:17.026Z,13.00
2023-02-13T04:31:48.625Z,12.13
2023-02-13T04:34:20.666Z,13.07
2023-02-13T04:36:52.276Z,12.30
2023-02-13T04:39:22.351Z,13.10
2023-02-13T04:41:52.440Z,12.80
2023-02-13T04:44:25.205Z,12.00
2023-02-13T04:46:55.480Z,13.70
2023-02-13T04:49:25.546Z,11.97
2023-02-13T04:51:55.629Z,12.30
2023-02-13T04:54:25.764Z,12.20
2023-02-13T04:56:55.867Z,11.20
2023-02-13T04:59:28.475Z,11.93
2023-02-13T05:01:59.823Z,11.23
2023-02-13T05:04:30.166Z,12.13
2023-02-13T05:07:00.511Z,11.63
2023-02-13T05:09:30.687Z,11.07
2023-02-13T05:12:03.890Z,11.60
2023-02-13T05:14:36.794Z,11.33
2023-02-13T05:17:06.907Z,10.73
2023-02-13T05:19:37.102Z,10.97
2023-02-13T05:22:19.709Z,10.90
2023-02-13T05:24:49.773Z,11.60
2023-02-13T05:27:19.877Z,10.00
2023-02-13T05:29:52.581Z,10.80
2023-02-13T05:32:22.958Z,10.97
2023-02-13T05:34:53.025Z,12.07
2023-02-13T05:37:23.164Z,10.83
2023-02-13T05:39:53.309Z,11.50
2023-02-13T05:42:23.418Z,11.37
2023-02-13T05:44:58.611Z,11.27
2023-02-13T05:47:28.931Z,11.73
2023-02-13T05:49:58.983Z,10.90
2023-02-13T05:52:29.178Z,10.63
2023-02-13T05:54:59.446Z,12.20
2023-02-13T05:57:33.888Z,11.47
2023-02-13T06:00:12.605Z,11.87
2023-02-13T06:02:45.586Z,10.53
2023-02-13T06:05:15.755Z,11.47
2023-02-13T06:07:48.232Z,10.53
2023-02-13T06:10:18.840Z,11.50
2023-02-13T06:12:48.918Z,11.07
2023-02-13T06:15:21.638Z,11.67
2023-02-13T06:17:51.793Z,11.07
2023-02-13T06:20:27.603Z,11.40
2023-02-13T06:22:57.977Z,11.27
2023-02-13T06:25:28.584Z,12.07
2023-02-13T06:27:58.808Z,11.80
2023-02-13T06:30:32.217Z,12.13
2023-02-13T06:33:03.003Z,12.10
2023-02-13T06:35:33.102Z,11.53
2023-02-13T06:38:03.289Z,10.83
2023-02-13T06:40:33.367Z,11.53
2023-02-13T06:43:03.647Z,12.77
2023-02-13T06:45:36.309Z,11.63
2023-02-13T06:48:06.744Z,11.47
2023-02-13T06:50:37.340Z,11.10
2023-02-13T06:53:07.557Z,12.50
2023-02-13T06:55:41.399Z,11.63
2023-02-13T06:58:11.573Z,11.60
2023-02-13T07:00:44.286Z,11.73
2023-02-13T07:03:14.670Z,11.13
2023-02-13T07:05:51.988Z,12.00
2023-02-13T07:08:22.746Z,12.27
2023-02-13T07:10:52.819Z,12.03
2023-02-13T07:13:23.189Z,11.80
2023-02-13T07:15:58.094Z,12.80
2023-02-13T07:18:28.203Z,12.57
2023-02-13T07:20:58.766Z,12.00
2023-02-13T07:23:29.177Z,12.67
2023-02-13T07:26:02.399Z,11.20
2023-02-13T07:28:33.521Z,11.30
2023-02-13T07:31:10.169Z,12.47
2023-02-13T07:33:41.066Z,12.80
2023-02-13T07:36:11.793Z,12.97
2023-02-13T07:38:41.996Z,11.83
2023-02-13T07:41:12.172Z,12.07
2023-02-13T07:43:44.601Z,13.27
2023-02-13T07:46:17.337Z,13.10
2023-02-13T07:48:47.568Z,13.10
2023-02-13T07:51:17.920Z,13.40
2023-02-13T07:53:48.172Z,13.00
2023-02-13T07:56:18.236Z,12.53
2023-02-13T07:58:48.579Z,12.23
2023-02-13T08:01:21.690Z,12.77
2023-02-13T08:03:54.147Z,11.30
2023-02-13T08:06:25.429Z,10.70
2023-02-13T08:09:15.546Z,10.35
2023-02-13T08:11:56.012Z,9.90
2023-02-13T08:14:28.257Z,9.80
2023-02-13T08:17:04.565Z,10.30
2023-02-13T08:19:34.646Z,11.27
2023-02-13T08:22:04.905Z,11.45
2023-02-13T08:24:36.009Z,11.32
2023-02-13T08:27:06.182Z,11.52
2023-02-13T08:29:36.763Z,10.38
2023-02-13T08:32:10.557Z,10.73
2023-02-13T08:34:40.794Z,10.68
2023-02-13T08:37:10.927Z,10.63
2023-02-13T08:39:41.060Z,10.75
2023-02-13T08:42:15.105Z,10.23
2023-02-13T08:44:48.063Z,11.02
2023-02-13T08:47:20.714Z,10.40
2023-02-13T08:49:53.351Z,10.27
2023-02-13T08:52:23.491Z,10.75
2023-02-13T08:54:53.634Z,11.50
2023-02-13T08:57:23.879Z,10.90
2023-02-13T08:59:54.017Z,10.48
2023-02-13T09:02:26.754Z,11.18
2023-02-13T09:04:57.281Z,10.50
2023-02-13T09:07:28.349Z,10.38
2023-02-13T09:09:58.455Z,11.30
2023-02-13T09:12:28.461Z,11.00
2023-02-13T09:14:58.581Z,10.80
2023-02-13T09:17:31.186Z,10.98
2023-02-13T09:20:03.933Z,10.68
2023-02-13T09:22:34.006Z,9.93
2023-02-13T09:25:04.947Z,9.60
2023-02-13T09:27:35.896Z,11.18
2023-02-13T09:30:06.426Z,11.25
2023-02-13T09:32:39.146Z,10.35
2023-02-13T09:35:10.101Z,10.13
2023-02-13T09:37:40.137Z,10.02
2023-02-13T09:40:22.789Z,10.23
2023-02-13T09:42:55.592Z,10.57
2023-02-13T09:45:26.383Z,10.02
2023-02-13T09:47:59.281Z,10.35
2023-02-13T09:50:35.588Z,10.75
2023-02-13T09:53:07.442Z,10.82
2023-02-13T09:55:53.757Z,11.32
2023-02-13T09:58:47.211Z,10.55
2023-02-13T10:01:32.551Z,10.65
2023-02-13T10:04:32.316Z,10.18
2023-02-13T10:07:23.656Z,9.50
2023-02-13T10:10:05.408Z,10.05
2023-02-13T10:13:14.694Z,9.90
2023-02-13T10:15:54.992Z,10.43
2023-02-13T10:18:34.314Z,9.95
2023-02-13T10:21:14.426Z,10.23
2023-02-13T10:23:53.021Z,9.68
2023-02-13T10:26:27.241Z,9.70
2023-02-13T10:29:38.183Z,10.13
2023-02-13T10:32:52.010Z,9.38
2023-02-13T10:35:43.199Z,9.20
2023-02-13T10:38:44.931Z,9.45
2023-02-13T10:41:53.305Z,9.80
2023-02-13T10:45:01.894Z,9.90
2023-02-13T10:48:15.660Z,9.30
2023-02-13T10:51:16.404Z,9.75
2023-02-13T10:54:35.928Z,8.90
2023-02-13T10:57:39.029Z,9.38
2023-02-13T11:00:21.096Z,9.60
2023-02-13T11:02:51.420Z,9.80
2023-02-13T11:05:26.037Z,9.75
2023-02-13T11:07:56.002Z,9.90
2023-02-13T11:10:30.254Z,9.57
2023-02-13T11:13:17.701Z,9.88
2023-02-13T11:16:03.219Z,9.55
2023-02-13T11:18:38.145Z,8.90
2023-02-13T11:21:14.196Z,8.80
2023-02-13T11:24:02.930Z,9.10
2023-02-13T11:27:09.456Z,9.25
2023-02-13T11:30:03.293Z,8.77
2023-02-13T11:33:03.776Z,8.32
2023-02-13T11:35:37.878Z,8.90
2023-02-13T11:38:27.661Z,8.23
2023-02-13T11:41:30.952Z,8.20
2023-02-13T11:44:30.407Z,8.52
2023-02-13T11:47:37.057Z,8.75
2023-02-13T11:50:31.935Z,8.85
2023-02-13T11:53:26.305Z,10.23
2023-02-13T11:56:12.310Z,9.88
2023-02-13T11:58:44.367Z,11.25
2023-02-13T12:01:41.381Z,7.53
2023-02-13T12:04:19.033Z,7.35
2023-02-13T12:07:04.436Z,7.38
2023-02-13T12:09:35.682Z,7.35
2023-02-13T12:12:08.579Z,7.10
2023-02-13T12:14:47.693Z,7.45
2023-02-13T12:17:31.780Z,7.45
2023-02-13T12:20:03.714Z,8.63
2023-02-13T12:22:47.566Z,8.50
2023-02-13T12:25:53.189Z,8.52
2023-02-13T12:32:08.171Z,8.27
2023-02-13T12:35:28.425Z,8.52
2023-02-13T12:38:10.718Z,9.20
2023-02-13T12:41:16.298Z,8.23
2023-02-13T12:44:46.052Z,8.43
2023-02-13T12:47:24.628Z,8.02
2023-02-13T12:50:38.173Z,8.25
2023-02-13T12:53:29.622Z,8.75
2023-02-13T12:56:32.174Z,8.45
2023-02-13T12:59:17.747Z,8.30
2023-02-13T13:02:27.249Z,8.55
2023-02-13T13:05:17.412Z,7.65
2023-02-13T13:08:22.630Z,8.60
2023-02-13T13:11:16.422Z,7.97
2023-02-13T13:14:05.165Z,7.93
2023-02-13T13:16:50.755Z,7.82
2023-02-13T13:19:38.751Z,7.63
2023-02-13T13:22:20.372Z,7.50
2023-02-13T13:25:09.415Z,6.80
2023-02-13T13:27:46.935Z,7.00
2023-02-13T13:30:22.835Z,7.05
2023-02-13T13:33:02.336Z,7.22
2023-02-13T13:35:37.270Z,6.80
2023-02-13T13:38:21.499Z,7.13
2023-02-13T13:41:01.089Z,7.05
2023-02-13T13:43:44.536Z,6.05
2023-02-13T13:46:24.540Z,5.78
2023-02-13T13:49:16.974Z,6.50
2023-02-13T13:51:47.569Z,6.10
2023-02-13T13:54:28.124Z,6.72
2023-02-13T13:57:14.271Z,6.45
2023-02-13T14:00:30.898Z,5.53
2023-02-13T14:03:27.920Z,5.60
2023-02-13T14:06:17.519Z,6.28
2023-02-13T14:09:32.805Z,5.50
2023-02-13T14:12:48.437Z,6.40
2023-02-13T14:15:55.001Z,5.45
2023-02-13T14:18:28.309Z,5.40
2023-02-13T14:21:01.748Z,4.95
2023-02-13T14:23:53.532Z,5.15
2023-02-13T14:27:04.910Z,5.03
2023-02-13T14:29:38.828Z,5.45
2023-02-13T14:32:32.939Z,5.25
2023-02-13T14:35:08.670Z,5.35
2023-02-13T14:37:50.345Z,5.15
2023-02-13T14:40:57.410Z,4.30
2023-02-13T14:43:53.902Z,4.90
2023-02-13T14:46:41.225Z,4.38
2023-02-13T14:49:20.459Z,4.70
2023-02-13T14:51:55.813Z,4.13
2023-02-13T14:54:32.357Z,4.30
2023-02-13T14:57:16.790Z,4.57
2023-02-13T14:59:54.508Z,4.63
2023-02-13T15:02:30.454Z,4.30
2023-02-13T15:05:10.219Z,4.47
2023-02-13T15:07:50.336Z,4.72
2023-02-13T15:10:49.370Z,8.02
2023-02-13T15:13:25.779Z,5.35
2023-02-13T15:16:06.922Z,4.60
2023-02-13T15:18:46.217Z,4.60
2023-02-13T15:21:25.545Z,3.92
2023-02-13T15:24:02.052Z,4.60
2023-02-13T15:26:32.411Z,4.53
2023-02-13T15:29:14.092Z,3.95
2023-02-13T15:31:50.655Z,4.28
2023-02-13T15:34:34.346Z,4.55
2023-02-13T15:37:04.944Z,4.93
2023-02-13T15:39:35.755Z,4.40
2023-02-13T15:42:06.932Z,3.92
2023-02-13T15:44:42.617Z,5.10
2023-02-13T15:47:25.219Z,4.63
2023-02-13T15:49:58.274Z,4.63
2023-02-13T15:52:37.088Z,4.18
2023-02-13T15:55:08.045Z,4.57
2023-02-13T15:57:38.471Z,4.50
2023-02-13T16:00:19.375Z,4.60
2023-02-13T16:02:54.052Z,4.60
2023-02-13T16:05:40.044Z,4.72
2023-02-13T16:08:36.014Z,4.30
2023-02-13T16:11:33.590Z,4.50
2023-02-13T16:14:10.730Z,4.30
2023-02-13T16:16:51.137Z,4.28
2023-02-13T16:19:37.253Z,4.80
2023-02-13T16:22:28.733Z,4.50
2023-02-13T16:25:23.606Z,4.68
2023-02-13T16:27:57.715Z,4.63
2023-02-13T16:30:36.047Z,4.40
2023-02-13T16:33:25.792Z,4.45
2023-02-13T16:35:58.809Z,4.18
2023-02-13T16:38:36.773Z,4.63
2023-02-13T16:41:29.497Z,4.38
2023-02-13T16:44:00.808Z,4.68
2023-02-13T16:46:40.192Z,4.32
2023-02-13T16:49:33.538Z,4.75
2023-02-13T16:52:21.880Z,5.15
2023-02-13T16:55:02.533Z,5.15
2023-02-13T16:57:38.815Z,5.20
2023-02-13T17:00:22.637Z,5.55
2023-02-13T17:02:53.973Z,5.13
2023-02-13T17:05:26.963Z,5.25
2023-02-13T17:08:01.750Z,4.97
2023-02-13T17:10:37.847Z,5.30
2023-02-13T17:13:19.414Z,5.45
2023-02-13T17:15:52.188Z,5.10
2023-02-13T17:18:22.388Z,5.93
2023-02-13T17:20:52.590Z,5.43
2023-02-13T17:23:27.306Z,5.32
2023-02-13T17:25:59.994Z,5.55
2023-02-13T17:28:32.577Z,5.47
2023-02-13T17:31:03.148Z,5.53
2023-02-13T17:33:37.294Z,5.82
2023-02-13T17:36:10.025Z,5.78
2023-02-13T17:38:40.194Z,6.22
2023-02-13T17:41:18.975Z,7.75
2023-02-13T17:43:49.063Z,6.20
2023-02-13T17:46:19.143Z,6.32
2023-02-13T17:48:49.711Z,6.28
2023-02-13T17:51:19.800Z,6.80
2023-02-13T17:53:50.309Z,6.13
2023-02-13T17:56:22.930Z,6.45
2023-02-13T17:58:53.104Z,7.22
2023-02-13T18:01:23.240Z,6.75
2023-02-13T18:03:55.727Z,7.13
2023-02-13T18:06:25.776Z,6.80
2023-02-13T18:08:58.159Z,6.70
2023-02-13T18:11:31.223Z,7.35
2023-02-13T18:14:08.682Z,7.55
2023-02-13T18:16:38.719Z,7.47
2023-02-13T18:19:08.937Z,8.10
2023-02-13T18:21:40.212Z,7.85
2023-02-13T18:24:10.951Z,7.95
2023-02-13T18:26:43.646Z,7.20
2023-02-13T18:29:13.802Z,7.40
2023-02-13T18:31:45.941Z,8.13
2023-02-13T18:34:16.294Z,8.20
2023-02-13T18:36:46.624Z,7.75
2023-02-13T18:39:17.348Z,9.00
2023-02-13T18:41:50.069Z,7.03
2023-02-13T18:44:28.155Z,8.13
2023-02-13T18:47:01.785Z,8.33
2023-02-13T18:49:32.981Z,8.67
2023-02-13T18:52:03.532Z,8.13
2023-02-13T18:54:33.910Z,7.95
2023-02-13T18:57:15.661Z,8.52
2023-02-13T18:59:45.836Z,9.23
2023-02-13T19:02:16.050Z,8.53
2023-02-13T19:04:46.509Z,8.10
2023-02-13T19:07:16.648Z,7.50
2023-02-13T19:09:46.827Z,9.07
2023-02-13T19:12:19.488Z,11.17
2023-02-13T19:14:49.764Z,13.00
2023-02-13T19:17:19.935Z,13.67
2023-02-13T19:19:50.595Z,13.40
2023-02-13T19:22:20.858Z,14.20
2023-02-13T19:24:51.113Z,10.67
2023-02-13T19:27:23.801Z,9.37
2023-02-13T19:29:53.911Z,8.80
2023-02-13T19:32:24.069Z,8.70
2023-02-13T19:34:54.202Z,9.07
2023-02-13T19:37:26.734Z,8.80
2023-02-13T19:39:58.637Z,8.67
2023-02-13T19:42:31.338Z,9.53
2023-02-13T19:45:01.468Z,9.67
2023-02-13T19:47:31.548Z,8.47
2023-02-13T19:50:01.669Z,8.00
2023-02-13T19:52:31.724Z,8.60
2023-02-13T19:55:01.872Z,7.80
2023-02-13T19:57:34.528Z,6.57
2023-02-13T20:00:05.048Z,7.90
2023-02-13T20:02:36.725Z,6.50
2023-02-13T20:05:08.925Z,6.30
2023-02-13T20:07:39.026Z,6.83
2023-02-13T20:10:12.437Z,7.00
2023-02-13T20:12:45.086Z,6.93
2023-02-13T20:15:15.509Z,5.80
2023-02-13T20:17:45.629Z,7.33
2023-02-13T20:20:16.571Z,6.27
2023-02-13T20:22:49.216Z,6.03
2023-02-13T20:25:20.252Z,6.83
2023-02-13T20:27:55.837Z,6.57
2023-02-13T20:30:26.228Z,6.37
2023-02-13T20:32:56.344Z,6.33
2023-02-13T20:35:26.454Z,6.13
2023-02-13T20:37:58.933Z,6.40
2023-02-13T20:40:29.040Z,7.60
2023-02-13T20:43:01.683Z,8.30
2023-02-13T20:45:31.815Z,8.80
2023-02-13T20:48:02.023Z,7.80
2023-02-13T20:50:32.187Z,7.80
2023-02-13T20:53:02.305Z,7.60
2023-02-13T20:55:32.392Z,8.40
2023-02-13T20:58:05.196Z,9.07
2023-02-13T21:00:35.452Z,6.33
2023-02-13T21:03:05.719Z,7.60
2023-02-13T21:05:36.377Z,7.63
2023-02-13T21:08:06.626Z,7.93
2023-02-13T21:10:36.811Z,8.87
2023-02-13T21:13:10.327Z,8.53
2023-02-13T21:15:40.972Z,8.00
2023-02-13T21:18:13.363Z,7.80
2023-02-13T21:20:43.574Z,7.30
2023-02-13T21:23:13.679Z,7.10
2023-02-13T21:25:43.769Z,7.77
2023-02-13T21:28:16.431Z,9.73
2023-02-13T21:30:46.645Z,11.07
2023-02-13T21:33:16.796Z,9.70
2023-02-13T21:35:46.873Z,7.83
2023-02-13T21:38:17.766Z,6.90
2023-02-13T21:40:48.495Z,7.00
2023-02-13T21:43:21.260Z,6.60
2023-02-13T21:45:51.418Z,7.23
2023-02-13T21:48:21.714Z,7.47
2023-02-13T21:50:51.815Z,7.83
2023-02-13T21:53:22.058Z,8.10
2023-02-13T21:55:53.254Z,9.13
2023-02-13T21:58:28.109Z,8.57
2023-02-13T22:01:00.954Z,7.47
2023-02-13T22:03:31.736Z,8.03
2023-02-13T22:06:01.840Z,7.57
2023-02-13T22:08:31.954Z,7.23
2023-02-13T22:11:04.544Z,8.67
2023-02-13T22:13:39.053Z,7.87
2023-02-13T22:16:12.328Z,9.13
2023-02-13T22:18:45.934Z,8.40
2023-02-13T22:21:20.645Z,7.87
2023-02-13T22:23:51.483Z,8.17
2023-02-13T22:26:24.264Z,7.53
2023-02-13T22:29:01.320Z,7.63
2023-02-13T22:31:31.777Z,7.57
2023-02-13T22:34:04.330Z,7.80
2023-02-13T22:36:38.961Z,7.67
2023-02-13T22:39:10.632Z,7.83
2023-02-13T22:41:41.437Z,7.47
2023-02-13T22:44:15.546Z,7.50
2023-02-13T22:46:45.884Z,7.87
2023-02-13T22:49:15.920Z,7.50
2023-02-13T22:51:46.069Z,8.33
2023-02-13T22:54:18.505Z,7.73
2023-02-13T22:56:48.593Z,7.50
2023-02-13T22:59:21.358Z,7.40
2023-02-13T23:01:51.451Z,8.60
2023-02-13T23:04:21.614Z,8.20
2023-02-13T23:06:51.790Z,8.17
2023-02-13T23:09:21.866Z,8.33
2023-02-13T23:12:04.509Z,8.77
2023-02-13T23:14:37.232Z,7.67
2023-02-13T23:17:22.766Z,8.13
2023-02-13T23:19:52.836Z,8.03
2023-02-13T23:22:23.000Z,7.40
2023-02-13T23:24:53.032Z,7.47
2023-02-13T23:27:25.487Z,7.93
2023-02-13T23:29:58.227Z,8.00
2023-02-13T23:32:29.860Z,8.93
2023-02-13T23:34:59.922Z,8.67
2023-02-13T23:37:30.470Z,7.73
2023-02-13T23:40:02.938Z,7.70
2023-02-13T23:42:33.067Z,8.20
2023-02-13T23:45:06.602Z,8.17
2023-02-13T23:47:36.730Z,8.40
2023-02-13T23:50:09.397Z,8.10
2023-02-13T23:52:39.663Z,7.67
2023-02-13T23:55:10.152Z,7.43
2023-02-13T23:57:40.296Z,8.67
